sensor_id;sensor_type;location;lat;lon;timestamp;noise_LAeq;noise_LA_min;noise_LA_max;noise_LA01;noise_LA95
70454;Laerm;57915;47.174;14.680;2023-03-21T00:00:25;41.93;40.27;51.64;;
70454;Laerm;57915;47.174;14.680;2023-03-21T00:01:27;42.28;40.56;47.37;;
70454;Laerm;57915;47.174;14.680;2023-03-21T00:02:27;42.26;40.31;47.42;;
70454;Laerm;57915;47.174;14.680;2023-03-21T00:03:29;41.82;40.08;46.41;;
70454;Laerm;57915;47.174;14.680;2023-03-21T00:04:31;43.55;40.46;49.07;;
70454;Laerm;57915;47.174;14.680;2023-03-21T00:05:33;54.09;42.64;62.93;;
70454;Laerm;57915;47.174;14.680;2023-03-21T00:06:33;41.67;40.34;45.49;;
70454;Laerm;57915;47.174;14.680;2023-03-21T00:07:35;41.73;40.32;43.20;;
70454;Laerm;57915;47.174;14.680;2023-03-21T00:08:36;41.51;39.70;47.11;;
70454;Laerm;57915;47.174;14.680;2023-03-21T00:09:38;41.60;39.86;52.34;;
70454;Laerm;57915;47.174;14.680;2023-03-21T00:10:38;41.58;40.15;43.26;;
70454;Laerm;57915;47.174;14.680;2023-03-21T00:11:40;41.61;40.32;44.13;;
70454;Laerm;57915;47.174;14.680;2023-03-21T00:12:40;42.00;39.90;45.72;;
70454;Laerm;57915;47.174;14.680;2023-03-21T00:13:42;44.56;40.95;55.15;;
70454;Laerm;57915;47.174;14.680;2023-03-21T00:14:42;45.58;42.35;51.80;;
70454;Laerm;57915;47.174;14.680;2023-03-21T00:15:45;42.77;40.31;46.82;;
70454;Laerm;57915;47.174;14.680;2023-03-21T00:16:54;45.52;40.16;56.71;;
70454;Laerm;57915;47.174;14.680;2023-03-21T00:17:56;58.54;40.30;72.83;;
70454;Laerm;57915;47.174;14.680;2023-03-21T00:19:02;41.95;40.00;45.41;;
70454;Laerm;57915;47.174;14.680;2023-03-21T00:20:08;60.94;39.60;74.78;;
70454;Laerm;57915;47.174;14.680;2023-03-21T00:21:15;42.00;39.93;45.83;;
70454;Laerm;57915;47.174;14.680;2023-03-21T00:22:17;41.77;40.24;46.83;;
70454;Laerm;57915;47.174;14.680;2023-03-21T00:23:17;42.66;40.55;45.43;;
70454;Laerm;57915;47.174;14.680;2023-03-21T00:24:19;47.14;42.64;52.66;;
70454;Laerm;57915;47.174;14.680;2023-03-21T00:25:20;46.42;40.84;56.35;;
70454;Laerm;57915;47.174;14.680;2023-03-21T00:26:22;48.59;41.36;62.40;;
70454;Laerm;57915;47.174;14.680;2023-03-21T00:27:23;42.53;40.58;48.78;;
70454;Laerm;57915;47.174;14.680;2023-03-21T00:28:24;42.38;40.30;45.00;;
70454;Laerm;57915;47.174;14.680;2023-03-21T00:29:25;42.25;40.69;46.29;;
70454;Laerm;57915;47.174;14.680;2023-03-21T00:30:26;41.94;40.20;44.94;;
70454;Laerm;57915;47.174;14.680;2023-03-21T00:31:27;42.08;39.96;50.86;;
70454;Laerm;57915;47.174;14.680;2023-03-21T00:32:28;40.93;39.57;44.30;;
70454;Laerm;57915;47.174;14.680;2023-03-21T00:33:30;41.02;39.62;42.99;;
70454;Laerm;57915;47.174;14.680;2023-03-21T00:34:30;41.86;40.34;44.47;;
70454;Laerm;57915;47.174;14.680;2023-03-21T00:35:34;41.91;40.10;44.65;;
70454;Laerm;57915;47.174;14.680;2023-03-21T00:36:34;41.85;40.26;44.07;;
70454;Laerm;57915;47.174;14.680;2023-03-21T00:37:36;42.03;40.03;45.44;;
70454;Laerm;57915;47.174;14.680;2023-03-21T00:38:36;59.10;40.81;72.82;;
70454;Laerm;57915;47.174;14.680;2023-03-21T00:39:38;41.87;40.13;49.55;;
70454;Laerm;57915;47.174;14.680;2023-03-21T00:40:38;41.89;39.85;44.58;;
70454;Laerm;57915;47.174;14.680;2023-03-21T00:41:40;41.19;39.84;43.52;;
70454;Laerm;57915;47.174;14.680;2023-03-21T00:42:41;41.57;39.98;44.66;;
70454;Laerm;57915;47.174;14.680;2023-03-21T00:43:42;41.57;39.93;45.42;;
70454;Laerm;57915;47.174;14.680;2023-03-21T00:44:42;41.60;39.48;46.03;;
70454;Laerm;57915;47.174;14.680;2023-03-21T00:45:44;41.88;39.78;48.63;;
70454;Laerm;57915;47.174;14.680;2023-03-21T00:46:45;41.59;39.98;45.08;;
70454;Laerm;57915;47.174;14.680;2023-03-21T00:47:47;40.95;39.65;42.57;;
70454;Laerm;57915;47.174;14.680;2023-03-21T00:48:47;40.78;39.62;42.50;;
70454;Laerm;57915;47.174;14.680;2023-03-21T00:49:48;57.86;40.60;70.11;;
70454;Laerm;57915;47.174;14.680;2023-03-21T00:50:51;44.76;40.85;57.23;;
70454;Laerm;57915;47.174;14.680;2023-03-21T00:51:53;41.36;39.89;44.36;;
70454;Laerm;57915;47.174;14.680;2023-03-21T00:52:53;41.55;40.07;43.60;;
70454;Laerm;57915;47.174;14.680;2023-03-21T00:53:56;41.71;40.23;45.12;;
70454;Laerm;57915;47.174;14.680;2023-03-21T00:54:56;41.79;40.45;45.98;;
70454;Laerm;57915;47.174;14.680;2023-03-21T00:55:58;41.66;40.46;43.47;;
70454;Laerm;57915;47.174;14.680;2023-03-21T00:56:58;42.49;40.48;47.66;;
70454;Laerm;57915;47.174;14.680;2023-03-21T00:58:00;42.67;40.93;46.52;;
70454;Laerm;57915;47.174;14.680;2023-03-21T00:59:01;48.91;41.20;56.50;;
70454;Laerm;57915;47.174;14.680;2023-03-21T01:00:03;50.54;40.31;61.47;;
70454;Laerm;57915;47.174;14.680;2023-03-21T01:01:06;52.30;40.25;64.07;;
70454;Laerm;57915;47.174;14.680;2023-03-21T01:02:08;41.89;40.38;44.38;;
70454;Laerm;57915;47.174;14.680;2023-03-21T01:03:13;42.15;40.04;45.03;;
70454;Laerm;57915;47.174;14.680;2023-03-21T01:04:15;41.39;40.17;45.18;;
70454;Laerm;57915;47.174;14.680;2023-03-21T01:05:16;41.59;39.93;44.15;;
70454;Laerm;57915;47.174;14.680;2023-03-21T01:06:39;41.80;40.35;44.08;;
70454;Laerm;57915;47.174;14.680;2023-03-21T01:07:40;43.08;40.29;45.54;;
70454;Laerm;57915;47.174;14.680;2023-03-21T01:08:42;43.34;41.09;48.28;;
70454;Laerm;57915;47.174;14.680;2023-03-21T01:09:42;42.06;40.39;46.90;;
70454;Laerm;57915;47.174;14.680;2023-03-21T01:10:45;42.00;40.66;43.96;;
70454;Laerm;57915;47.174;14.680;2023-03-21T01:11:46;41.80;40.03;45.12;;
70454;Laerm;57915;47.174;14.680;2023-03-21T01:12:48;42.44;40.36;54.28;;
70454;Laerm;57915;47.174;14.680;2023-03-21T01:13:48;41.89;40.61;44.65;;
70454;Laerm;57915;47.174;14.680;2023-03-21T01:14:50;42.28;40.80;44.17;;
70454;Laerm;57915;47.174;14.680;2023-03-21T01:15:51;42.02;40.45;45.24;;
70454;Laerm;57915;47.174;14.680;2023-03-21T01:16:53;41.94;40.59;46.78;;
70454;Laerm;57915;47.174;14.680;2023-03-21T01:18:00;41.66;40.14;43.94;;
70454;Laerm;57915;47.174;14.680;2023-03-21T01:19:01;41.85;40.41;45.72;;
70454;Laerm;57915;47.174;14.680;2023-03-21T01:20:03;42.49;40.68;46.55;;
70454;Laerm;57915;47.174;14.680;2023-03-21T01:21:06;42.56;40.42;46.47;;
70454;Laerm;57915;47.174;14.680;2023-03-21T01:22:10;48.33;41.74;56.04;;
70454;Laerm;57915;47.174;14.680;2023-03-21T01:23:11;44.39;41.50;50.78;;
70454;Laerm;57915;47.174;14.680;2023-03-21T01:24:12;42.80;40.35;47.90;;
70454;Laerm;57915;47.174;14.680;2023-03-21T01:25:13;42.03;40.25;45.47;;
70454;Laerm;57915;47.174;14.680;2023-03-21T01:26:14;41.87;40.39;43.99;;
70454;Laerm;57915;47.174;14.680;2023-03-21T01:27:15;41.96;40.38;43.92;;
70454;Laerm;57915;47.174;14.680;2023-03-21T01:28:17;42.29;39.50;55.17;;
70454;Laerm;57915;47.174;14.680;2023-03-21T01:29:17;42.32;40.90;45.02;;
70454;Laerm;57915;47.174;14.680;2023-03-21T01:30:23;42.71;40.91;45.94;;
70454;Laerm;57915;47.174;14.680;2023-03-21T01:31:23;43.32;41.06;50.31;;
70454;Laerm;57915;47.174;14.680;2023-03-21T01:32:25;59.73;43.34;71.77;;
70454;Laerm;57915;47.174;14.680;2023-03-21T01:33:26;44.30;41.66;47.57;;
70454;Laerm;57915;47.174;14.680;2023-03-21T01:34:27;43.98;41.50;51.79;;
70454;Laerm;57915;47.174;14.680;2023-03-21T01:35:29;42.34;40.54;46.04;;
70454;Laerm;57915;47.174;14.680;2023-03-21T01:36:30;42.36;40.84;44.81;;
70454;Laerm;57915;47.174;14.680;2023-03-21T01:37:33;43.18;41.04;47.59;;
70454;Laerm;57915;47.174;14.680;2023-03-21T01:38:34;49.85;40.75;67.19;;
70454;Laerm;57915;47.174;14.680;2023-03-21T01:39:35;58.09;41.40;70.45;;
70454;Laerm;57915;47.174;14.680;2023-03-21T01:40:36;43.97;41.01;53.48;;
70454;Laerm;57915;47.174;14.680;2023-03-21T01:41:38;59.17;40.62;71.51;;
70454;Laerm;57915;47.174;14.680;2023-03-21T01:42:39;42.90;40.73;46.03;;
70454;Laerm;57915;47.174;14.680;2023-03-21T01:43:40;42.50;40.68;44.59;;
70454;Laerm;57915;47.174;14.680;2023-03-21T01:44:51;55.84;40.59;69.03;;
70454;Laerm;57915;47.174;14.680;2023-03-21T01:46:09;43.00;40.83;46.54;;
70454;Laerm;57915;47.174;14.680;2023-03-21T01:47:20;43.09;41.08;47.05;;
70454;Laerm;57915;47.174;14.680;2023-03-21T01:48:21;42.96;40.93;49.35;;
70454;Laerm;57915;47.174;14.680;2023-03-21T01:49:23;57.19;41.23;71.75;;
70454;Laerm;57915;47.174;14.680;2023-03-21T01:50:27;50.35;41.46;65.69;;
70454;Laerm;57915;47.174;14.680;2023-03-21T01:51:28;56.83;41.26;70.74;;
70454;Laerm;57915;47.174;14.680;2023-03-21T01:52:31;54.51;41.48;66.37;;
70454;Laerm;57915;47.174;14.680;2023-03-21T01:53:33;43.31;41.26;46.92;;
70454;Laerm;57915;47.174;14.680;2023-03-21T01:54:37;42.58;40.95;44.36;;
70454;Laerm;57915;47.174;14.680;2023-03-21T01:55:38;43.39;41.45;46.40;;
70454;Laerm;57915;47.174;14.680;2023-03-21T01:56:40;51.82;40.85;64.68;;
70454;Laerm;57915;47.174;14.680;2023-03-21T01:57:45;43.07;41.07;45.73;;
70454;Laerm;57915;47.174;14.680;2023-03-21T01:58:48;43.15;41.33;45.09;;
70454;Laerm;57915;47.174;14.680;2023-03-21T01:59:50;42.62;40.91;44.57;;
70454;Laerm;57915;47.174;14.680;2023-03-21T02:00:53;42.68;41.28;45.17;;
70454;Laerm;57915;47.174;14.680;2023-03-21T02:01:55;42.54;41.08;44.52;;
70454;Laerm;57915;47.174;14.680;2023-03-21T02:03:01;45.02;41.76;51.25;;
70454;Laerm;57915;47.174;14.680;2023-03-21T02:04:02;47.87;43.96;52.44;;
70454;Laerm;57915;47.174;14.680;2023-03-21T02:05:04;43.95;41.74;48.68;;
70454;Laerm;57915;47.174;14.680;2023-03-21T02:06:05;43.46;41.34;48.86;;
70454;Laerm;57915;47.174;14.680;2023-03-21T02:07:10;43.10;41.12;46.29;;
70454;Laerm;57915;47.174;14.680;2023-03-21T02:08:12;48.17;41.47;56.37;;
70454;Laerm;57915;47.174;14.680;2023-03-21T02:09:15;49.04;44.42;54.58;;
70454;Laerm;57915;47.174;14.680;2023-03-21T02:10:17;43.38;40.95;47.01;;
70454;Laerm;57915;47.174;14.680;2023-03-21T02:11:19;43.87;41.38;48.98;;
70454;Laerm;57915;47.174;14.680;2023-03-21T02:12:21;55.60;41.10;68.18;;
70454;Laerm;57915;47.174;14.680;2023-03-21T02:13:23;42.14;40.82;44.81;;
70454;Laerm;57915;47.174;14.680;2023-03-21T02:14:23;42.59;41.09;46.98;;
70454;Laerm;57915;47.174;14.680;2023-03-21T02:15:25;42.41;40.92;44.23;;
70454;Laerm;57915;47.174;14.680;2023-03-21T02:16:33;42.65;40.93;46.15;;
70454;Laerm;57915;47.174;14.680;2023-03-21T02:17:38;43.88;41.33;47.35;;
70454;Laerm;57915;47.174;14.680;2023-03-21T02:18:42;42.85;41.16;46.15;;
70454;Laerm;57915;47.174;14.680;2023-03-21T02:22:32;43.64;41.24;47.74;;
70454;Laerm;57915;47.174;14.680;2023-03-21T02:24:00;54.68;41.45;67.08;;
70454;Laerm;57915;47.174;14.680;2023-03-21T02:25:17;42.84;40.89;47.22;;
70454;Laerm;57915;47.174;14.680;2023-03-21T02:27:43;42.27;40.81;50.31;;
70454;Laerm;57915;47.174;14.680;2023-03-21T02:28:46;43.20;40.86;49.89;;
70454;Laerm;57915;47.174;14.680;2023-03-21T02:31:23;43.15;41.24;48.23;;
70454;Laerm;57915;47.174;14.680;2023-03-21T02:32:29;42.44;40.90;45.14;;
70454;Laerm;57915;47.174;14.680;2023-03-21T02:33:41;42.83;40.91;47.27;;
70454;Laerm;57915;47.174;14.680;2023-03-21T02:34:50;52.02;41.48;65.06;;
70454;Laerm;57915;47.174;14.680;2023-03-21T02:36:04;43.68;40.97;47.94;;
70454;Laerm;57915;47.174;14.680;2023-03-21T02:37:14;46.04;42.02;51.29;;
70454;Laerm;57915;47.174;14.680;2023-03-21T02:38:19;45.42;41.50;52.02;;
70454;Laerm;57915;47.174;14.680;2023-03-21T02:39:23;43.58;41.61;51.99;;
70454;Laerm;57915;47.174;14.680;2023-03-21T02:40:27;43.63;41.12;51.70;;
70454;Laerm;57915;47.174;14.680;2023-03-21T02:41:31;44.07;41.45;54.88;;
70454;Laerm;57915;47.174;14.680;2023-03-21T02:42:36;45.27;41.80;56.03;;
70454;Laerm;57915;47.174;14.680;2023-03-21T02:43:41;55.83;40.84;69.07;;
70454;Laerm;57915;47.174;14.680;2023-03-21T02:44:45;42.34;41.00;44.37;;
70454;Laerm;57915;47.174;14.680;2023-03-21T02:45:48;43.59;41.80;47.70;;
70454;Laerm;57915;47.174;14.680;2023-03-21T02:46:53;43.25;41.70;45.16;;
70454;Laerm;57915;47.174;14.680;2023-03-21T02:47:56;43.05;41.24;45.99;;
70454;Laerm;57915;47.174;14.680;2023-03-21T02:49:02;42.81;41.00;46.82;;
70454;Laerm;57915;47.174;14.680;2023-03-21T02:50:08;42.67;41.06;47.50;;
70454;Laerm;57915;47.174;14.680;2023-03-21T02:51:11;43.06;40.84;48.18;;
70454;Laerm;57915;47.174;14.680;2023-03-21T02:52:17;43.55;41.06;50.00;;
70454;Laerm;57915;47.174;14.680;2023-03-21T02:53:19;42.89;41.49;45.82;;
70454;Laerm;57915;47.174;14.680;2023-03-21T02:54:21;42.98;40.88;47.30;;
70454;Laerm;57915;47.174;14.680;2023-03-21T02:55:25;42.82;40.88;46.32;;
70454;Laerm;57915;47.174;14.680;2023-03-21T02:56:26;57.40;41.01;72.52;;
70454;Laerm;57915;47.174;14.680;2023-03-21T02:57:28;45.70;41.85;51.88;;
70454;Laerm;57915;47.174;14.680;2023-03-21T02:58:29;46.54;41.17;52.74;;
70454;Laerm;57915;47.174;14.680;2023-03-21T02:59:32;42.72;41.13;45.70;;
70454;Laerm;57915;47.174;14.680;2023-03-21T03:00:34;43.20;41.36;46.65;;
70454;Laerm;57915;47.174;14.680;2023-03-21T03:01:36;43.05;41.55;46.17;;
70454;Laerm;57915;47.174;14.680;2023-03-21T03:02:37;57.10;41.54;69.57;;
70454;Laerm;57915;47.174;14.680;2023-03-21T03:03:39;44.56;41.12;48.97;;
70454;Laerm;57915;47.174;14.680;2023-03-21T03:04:39;42.59;39.74;46.49;;
70454;Laerm;57915;47.174;14.680;2023-03-21T03:05:42;54.99;41.54;66.76;;
70454;Laerm;57915;47.174;14.680;2023-03-21T03:06:48;58.08;42.18;68.89;;
70454;Laerm;57915;47.174;14.680;2023-03-21T03:07:59;59.59;41.49;74.59;;
70454;Laerm;57915;47.174;14.680;2023-03-21T03:09:08;48.08;41.87;58.47;;
70454;Laerm;57915;47.174;14.680;2023-03-21T03:10:18;58.23;43.20;70.73;;
70454;Laerm;57915;47.174;14.680;2023-03-21T03:11:23;43.67;41.86;47.91;;
70454;Laerm;57915;47.174;14.680;2023-03-21T03:12:30;44.20;41.96;54.72;;
70454;Laerm;57915;47.174;14.680;2023-03-21T03:13:36;54.81;42.41;67.29;;
70454;Laerm;57915;47.174;14.680;2023-03-21T03:14:44;54.66;42.18;67.74;;
70454;Laerm;57915;47.174;14.680;2023-03-21T03:15:50;43.83;41.90;46.98;;
70454;Laerm;57915;47.174;14.680;2023-03-21T03:16:58;43.74;41.90;47.84;;
70454;Laerm;57915;47.174;14.680;2023-03-21T03:18:04;43.55;41.73;48.25;;
70454;Laerm;57915;47.174;14.680;2023-03-21T03:19:10;43.86;41.59;49.31;;
70454;Laerm;57915;47.174;14.680;2023-03-21T03:20:18;43.20;41.61;45.44;;
70454;Laerm;57915;47.174;14.680;2023-03-21T03:21:21;54.73;41.61;65.59;;
70454;Laerm;57915;47.174;14.680;2023-03-21T03:22:24;43.82;41.55;49.09;;
70454;Laerm;57915;47.174;14.680;2023-03-21T03:23:28;43.99;41.59;50.67;;
70454;Laerm;57915;47.174;14.680;2023-03-21T03:24:36;44.00;41.43;51.07;;
70454;Laerm;57915;47.174;14.680;2023-03-21T03:25:41;43.48;41.79;47.76;;
70454;Laerm;57915;47.174;14.680;2023-03-21T03:26:46;55.53;41.53;68.65;;
70454;Laerm;57915;47.174;14.680;2023-03-21T03:27:47;43.21;41.47;46.41;;
70454;Laerm;57915;47.174;14.680;2023-03-21T03:28:51;45.47;41.88;50.90;;
70454;Laerm;57915;47.174;14.680;2023-03-21T03:29:52;50.36;42.27;61.82;;
70454;Laerm;57915;47.174;14.680;2023-03-21T03:30:55;43.31;41.72;47.30;;
70454;Laerm;57915;47.174;14.680;2023-03-21T03:31:58;43.75;41.97;51.59;;
70454;Laerm;57915;47.174;14.680;2023-03-21T03:33:01;56.85;42.87;65.27;;
70454;Laerm;57915;47.174;14.680;2023-03-21T03:34:03;46.84;42.86;56.61;;
70454;Laerm;57915;47.174;14.680;2023-03-21T03:35:06;62.32;43.30;72.41;;
70454;Laerm;57915;47.174;14.680;2023-03-21T03:36:09;44.58;42.35;49.47;;
70454;Laerm;57915;47.174;14.680;2023-03-21T03:37:12;55.78;42.53;67.41;;
70454;Laerm;57915;47.174;14.680;2023-03-21T03:38:13;58.05;42.57;68.80;;
70454;Laerm;57915;47.174;14.680;2023-03-21T03:39:16;50.75;42.69;63.62;;
70454;Laerm;57915;47.174;14.680;2023-03-21T03:40:17;57.45;42.83;69.52;;
70454;Laerm;57915;47.174;14.680;2023-03-21T03:41:23;60.72;43.23;73.35;;
70454;Laerm;57915;47.174;14.680;2023-03-21T03:42:26;62.36;42.60;74.54;;
70454;Laerm;57915;47.174;14.680;2023-03-21T03:43:30;45.60;42.27;54.38;;
70454;Laerm;57915;47.174;14.680;2023-03-21T03:44:33;47.10;42.43;60.59;;
70454;Laerm;57915;47.174;14.680;2023-03-21T03:45:36;53.86;44.23;63.05;;
70454;Laerm;57915;47.174;14.680;2023-03-21T03:46:39;63.34;43.83;74.64;;
70454;Laerm;57915;47.174;14.680;2023-03-21T03:47:45;60.14;43.46;70.46;;
70454;Laerm;57915;47.174;14.680;2023-03-21T03:48:49;44.64;41.73;54.35;;
70454;Laerm;57915;47.174;14.680;2023-03-21T03:49:54;45.41;42.52;53.02;;
70454;Laerm;57915;47.174;14.680;2023-03-21T03:50:56;58.13;42.32;69.91;;
70454;Laerm;57915;47.174;14.680;2023-03-21T03:52:03;48.60;41.69;65.07;;
70454;Laerm;57915;47.174;14.680;2023-03-21T03:53:06;56.64;42.41;68.99;;
70454;Laerm;57915;47.174;14.680;2023-03-21T03:54:09;45.71;42.10;56.85;;
70454;Laerm;57915;47.174;14.680;2023-03-21T03:55:13;55.86;42.80;68.64;;
70454;Laerm;57915;47.174;14.680;2023-03-21T03:56:16;47.03;42.42;57.13;;
70454;Laerm;57915;47.174;14.680;2023-03-21T03:57:17;46.97;42.68;58.28;;
70454;Laerm;57915;47.174;14.680;2023-03-21T03:58:21;59.02;43.25;72.28;;
70454;Laerm;57915;47.174;14.680;2023-03-21T03:59:21;53.38;42.49;64.81;;
70454;Laerm;57915;47.174;14.680;2023-03-21T04:00:24;46.73;42.83;55.83;;
70454;Laerm;57915;47.174;14.680;2023-03-21T04:01:26;55.50;42.92;71.17;;
70454;Laerm;57915;47.174;14.680;2023-03-21T04:02:28;60.01;43.31;72.21;;
70454;Laerm;57915;47.174;14.680;2023-03-21T04:03:29;57.58;43.64;68.56;;
70454;Laerm;57915;47.174;14.680;2023-03-21T04:04:31;55.70;44.94;67.40;;
70454;Laerm;57915;47.174;14.680;2023-03-21T04:05:35;59.27;45.28;72.79;;
70454;Laerm;57915;47.174;14.680;2023-03-21T04:06:37;48.01;43.49;56.20;;
70454;Laerm;57915;47.174;14.680;2023-03-21T04:07:38;57.44;43.26;68.34;;
70454;Laerm;57915;47.174;14.680;2023-03-21T04:08:40;57.58;44.35;69.32;;
70454;Laerm;57915;47.174;14.680;2023-03-21T04:09:41;46.46;42.87;53.00;;
70454;Laerm;57915;47.174;14.680;2023-03-21T04:10:44;53.01;44.07;64.08;;
70454;Laerm;57915;47.174;14.680;2023-03-21T04:11:44;57.72;43.10;69.69;;
70454;Laerm;57915;47.174;14.680;2023-03-21T04:12:46;60.32;46.95;68.62;;
70454;Laerm;57915;47.174;14.680;2023-03-21T04:13:47;60.58;45.15;71.05;;
70454;Laerm;57915;47.174;14.680;2023-03-21T04:14:49;61.66;44.86;72.56;;
70454;Laerm;57915;47.174;14.680;2023-03-21T04:15:49;49.66;44.21;55.93;;
70454;Laerm;57915;47.174;14.680;2023-03-21T04:16:51;51.53;47.02;57.11;;
70454;Laerm;57915;47.174;14.680;2023-03-21T04:17:51;59.42;44.22;73.63;;
70454;Laerm;57915;47.174;14.680;2023-03-21T04:18:53;58.46;43.80;69.40;;
70454;Laerm;57915;47.174;14.680;2023-03-21T04:19:53;57.50;44.03;68.41;;
70454;Laerm;57915;47.174;14.680;2023-03-21T04:20:54;61.48;45.90;69.67;;
70454;Laerm;57915;47.174;14.680;2023-03-21T04:21:56;63.19;44.91;73.14;;
70454;Laerm;57915;47.174;14.680;2023-03-21T04:22:57;55.72;45.05;66.55;;
70454;Laerm;57915;47.174;14.680;2023-03-21T04:23:58;55.13;44.89;68.34;;
70454;Laerm;57915;47.174;14.680;2023-03-21T04:24:59;58.04;44.23;70.34;;
70454;Laerm;57915;47.174;14.680;2023-03-21T04:26:01;58.39;44.17;69.05;;
70454;Laerm;57915;47.174;14.680;2023-03-21T04:27:03;57.41;44.81;67.62;;
70454;Laerm;57915;47.174;14.680;2023-03-21T04:28:05;57.78;44.53;69.40;;
70454;Laerm;57915;47.174;14.680;2023-03-21T04:29:06;61.77;44.57;72.10;;
70454;Laerm;57915;47.174;14.680;2023-03-21T04:30:07;52.21;44.57;68.37;;
70454;Laerm;57915;47.174;14.680;2023-03-21T04:31:11;61.99;46.77;70.78;;
70454;Laerm;57915;47.174;14.680;2023-03-21T04:32:12;63.11;46.83;69.55;;
70454;Laerm;57915;47.174;14.680;2023-03-21T04:33:16;61.16;45.36;72.41;;
70454;Laerm;57915;47.174;14.680;2023-03-21T04:34:17;62.32;45.27;69.23;;
70454;Laerm;57915;47.174;14.680;2023-03-21T04:35:23;55.03;44.33;69.39;;
70454;Laerm;57915;47.174;14.680;2023-03-21T04:36:23;61.10;44.76;69.80;;
70454;Laerm;57915;47.174;14.680;2023-03-21T04:37:26;57.15;46.26;69.04;;
70454;Laerm;57915;47.174;14.680;2023-03-21T04:38:28;61.10;44.76;70.31;;
70454;Laerm;57915;47.174;14.680;2023-03-21T04:39:29;58.09;45.20;69.31;;
70454;Laerm;57915;47.174;14.680;2023-03-21T04:40:31;63.70;46.30;72.49;;
70454;Laerm;57915;47.174;14.680;2023-03-21T04:41:33;63.60;44.80;73.14;;
70454;Laerm;57915;47.174;14.680;2023-03-21T04:42:36;57.94;44.94;70.94;;
70454;Laerm;57915;47.174;14.680;2023-03-21T04:43:36;57.05;44.51;69.78;;
70454;Laerm;57915;47.174;14.680;2023-03-21T04:44:38;60.21;44.42;72.84;;
70454;Laerm;57915;47.174;14.680;2023-03-21T04:45:39;61.51;45.06;73.42;;
70454;Laerm;57915;47.174;14.680;2023-03-21T04:46:41;59.35;45.14;71.14;;
70454;Laerm;57915;47.174;14.680;2023-03-21T04:47:41;61.64;44.69;70.77;;
70454;Laerm;57915;47.174;14.680;2023-03-21T04:48:43;56.48;43.90;69.24;;
70454;Laerm;57915;47.174;14.680;2023-03-21T04:49:43;58.34;46.05;68.63;;
70454;Laerm;57915;47.174;14.680;2023-03-21T04:50:47;60.79;44.74;73.08;;
70454;Laerm;57915;47.174;14.680;2023-03-21T04:51:47;63.53;48.58;74.55;;
70454;Laerm;57915;47.174;14.680;2023-03-21T04:52:49;48.67;44.98;54.51;;
70454;Laerm;57915;47.174;14.680;2023-03-21T04:53:49;56.69;44.90;68.85;;
70454;Laerm;57915;47.174;14.680;2023-03-21T04:54:51;59.94;45.39;70.34;;
70454;Laerm;57915;47.174;14.680;2023-03-21T04:55:52;48.19;45.30;56.52;;
70454;Laerm;57915;47.174;14.680;2023-03-21T04:56:55;57.79;44.84;70.38;;
70454;Laerm;57915;47.174;14.680;2023-03-21T04:57:55;58.98;44.49;70.94;;
70454;Laerm;57915;47.174;14.680;2023-03-21T04:58:57;53.27;44.29;64.67;;
70454;Laerm;57915;47.174;14.680;2023-03-21T04:59:58;56.14;43.91;65.94;;
70454;Laerm;57915;47.174;14.680;2023-03-21T05:00:59;61.03;45.19;71.88;;
70454;Laerm;57915;47.174;14.680;2023-03-21T05:02:01;57.67;46.17;68.32;;
70454;Laerm;57915;47.174;14.680;2023-03-21T05:03:03;59.41;46.95;70.43;;
70454;Laerm;57915;47.174;14.680;2023-03-21T05:04:04;56.16;45.34;68.22;;
70454;Laerm;57915;47.174;14.680;2023-03-21T05:05:06;50.09;45.80;59.72;;
70454;Laerm;57915;47.174;14.680;2023-03-21T05:06:10;63.20;47.33;73.15;;
70454;Laerm;57915;47.174;14.680;2023-03-21T05:07:11;61.57;45.67;71.30;;
70454;Laerm;57915;47.174;14.680;2023-03-21T05:08:12;57.37;45.60;69.02;;
70454;Laerm;57915;47.174;14.680;2023-03-21T05:09:13;59.40;46.83;70.50;;
70454;Laerm;57915;47.174;14.680;2023-03-21T05:10:14;62.82;45.07;73.95;;
70454;Laerm;57915;47.174;14.680;2023-03-21T05:11:16;64.51;46.41;72.12;;
70454;Laerm;57915;47.174;14.680;2023-03-21T05:12:18;60.10;45.94;70.37;;
70454;Laerm;57915;47.174;14.680;2023-03-21T05:13:20;59.11;44.56;68.91;;
70454;Laerm;57915;47.174;14.680;2023-03-21T05:14:21;59.67;46.32;73.08;;
70454;Laerm;57915;47.174;14.680;2023-03-21T05:15:23;60.72;49.26;70.29;;
70454;Laerm;57915;47.174;14.680;2023-03-21T05:16:23;63.54;46.27;75.61;;
70454;Laerm;57915;47.174;14.680;2023-03-21T05:17:26;57.10;45.76;71.49;;
70454;Laerm;57915;47.174;14.680;2023-03-21T05:18:27;62.18;46.59;71.93;;
70454;Laerm;57915;47.174;14.680;2023-03-21T05:19:33;58.76;46.57;71.44;;
70454;Laerm;57915;47.174;14.680;2023-03-21T05:20:34;60.80;45.49;71.02;;
70454;Laerm;57915;47.174;14.680;2023-03-21T05:21:35;59.78;46.79;71.30;;
70454;Laerm;57915;47.174;14.680;2023-03-21T05:22:40;58.79;45.71;73.08;;
70454;Laerm;57915;47.174;14.680;2023-03-21T05:23:45;61.80;46.30;70.17;;
70454;Laerm;57915;47.174;14.680;2023-03-21T05:24:53;60.12;47.63;71.14;;
70454;Laerm;57915;47.174;14.680;2023-03-21T05:25:55;57.25;44.71;69.29;;
70454;Laerm;57915;47.174;14.680;2023-03-21T05:26:55;54.19;46.31;66.43;;
70454;Laerm;57915;47.174;14.680;2023-03-21T05:28:03;62.29;46.44;74.06;;
70454;Laerm;57915;47.174;14.680;2023-03-21T05:29:04;63.61;46.89;73.89;;
70454;Laerm;57915;47.174;14.680;2023-03-21T05:30:07;58.55;46.57;70.96;;
70454;Laerm;57915;47.174;14.680;2023-03-21T05:31:08;57.77;47.39;67.48;;
70454;Laerm;57915;47.174;14.680;2023-03-21T05:32:09;59.31;48.78;70.91;;
70454;Laerm;57915;47.174;14.680;2023-03-21T05:33:10;62.77;47.40;73.57;;
70454;Laerm;57915;47.174;14.680;2023-03-21T05:34:11;60.66;46.75;71.30;;
70454;Laerm;57915;47.174;14.680;2023-03-21T05:35:12;57.33;45.72;69.57;;
70454;Laerm;57915;47.174;14.680;2023-03-21T05:36:13;58.15;45.51;70.87;;
70454;Laerm;57915;47.174;14.680;2023-03-21T05:37:14;56.93;45.79;67.44;;
70454;Laerm;57915;47.174;14.680;2023-03-21T05:38:15;63.10;50.16;74.36;;
70454;Laerm;57915;47.174;14.680;2023-03-21T05:39:16;58.45;45.01;70.99;;
70454;Laerm;57915;47.174;14.680;2023-03-21T05:40:18;58.32;45.26;68.43;;
70454;Laerm;57915;47.174;14.680;2023-03-21T05:41:18;60.19;48.88;68.73;;
70454;Laerm;57915;47.174;14.680;2023-03-21T05:42:20;51.81;47.85;61.98;;
70454;Laerm;57915;47.174;14.680;2023-03-21T05:43:22;61.45;48.55;71.27;;
70454;Laerm;57915;47.174;14.680;2023-03-21T05:44:23;61.50;49.27;71.63;;
70454;Laerm;57915;47.174;14.680;2023-03-21T05:45:24;60.77;49.27;71.37;;
70454;Laerm;57915;47.174;14.680;2023-03-21T05:46:26;62.69;47.84;74.10;;
70454;Laerm;57915;47.174;14.680;2023-03-21T05:47:26;57.23;45.95;67.50;;
70454;Laerm;57915;47.174;14.680;2023-03-21T05:48:28;61.15;49.98;70.03;;
70454;Laerm;57915;47.174;14.680;2023-03-21T05:49:28;63.44;47.53;72.53;;
70454;Laerm;57915;47.174;14.680;2023-03-21T05:50:30;63.15;51.47;72.35;;
70454;Laerm;57915;47.174;14.680;2023-03-21T05:51:32;62.68;50.58;70.99;;